Station WRXA2 - Wainwright, AK Image indicating link to RSS feed of recent meteorological observations for station WRXA2


Conditions at WRXA2 as of
(1:13 am AKDT)
0913 GMT on 04/21/2024:
     

Click on the graph icon in the table below to see a time series plot of the last five days of that observation.

5-day plot - Wind Direction Wind Direction (WDIR):WNW ( 290 deg true )
5-day plot - Wind Speed Wind Speed (WSPD): 11 kts
5-day plot - Wind Gust Wind Gust (GST): 16 kts
5-day plot - Air Temperature Air Temperature (ATMP): 3.0 °F
5-day plot - Dew Point Dew Point (DEWP): -0.2 °F
5-day plot - Wind Chill Wind Chill (CHILL):-14.1 °F
5-day plot - Wind Speed at 10 Meters Wind Speed at 10 meters (WSPD10M): 10 kts
5-day plot - Wind Speed at 20 Meters Wind Speed at 20 meters (WSPD20M): 12 kts
5-day plot -  Wind Speed, Wind Gust and Atmospheric Pressure Combined plot of Wind Speed, Gust, and Air Pressure
Previous observations
TIME
(AKDT)
5-day plot - Wind Direction
WDIR
 
5-day plot - Wind Speed
WSPD
kts
5-day plot - Wind Gust
GST
kts
5-day plot - Wave Height
WVHT
ft
5-day plot - Dominant Wave Period
DPD
sec
5-day plot - Average Wave Period
APD
sec
5-day plot - Mean Wave Direction
MWD
 
5-day plot - Atmospheric Pressure
PRES
in
5-day plot - Pressure Tendency
PTDY
in
5-day plot - Air Temperature
ATMP
°F
5-day plot - Water Temperature
WTMP
°F
5-day plot - Dew Point
DEWP
°F
5-day plot - Salinity
SAL
psu
5-day plot - Visibility
VIS
nmi
5-day plot - Tide (above MLLW)
TIDE
ft
2024-04-21 01:04 amWNW 12 17------ 3.2- -0.0---
2024-04-21 12:53 amWNW 12 19------ 3.6- 0.3---
2024-04-21 12:43 amWNW 13 19------ 3.9- 0.9---
2024-04-21 12:34 amWNW 12 17------ 4.3- 1.2---
2024-04-21 12:24 amWNW 12 18------ 4.6- 1.6---
2024-04-21 12:14 amWNW 11 15------ 5.0- 1.9---
2024-04-21 12:03 amWNW 12 17------ 5.4- 2.3---
2024-04-20 11:53 pmWNW 12 17------ 5.7- 2.7---
2024-04-20 11:43 pmWNW 11 16------ 6.1- 3.0---
2024-04-20 11:33 pmWNW 11 16------ 6.4- 3.4---
2024-04-20 11:24 pmWNW 11 16------ 6.6- 3.4---
2024-04-20 11:14 pmWNW 10 14------ 7.0- 3.7---
2024-04-20 11:03 pmWNW 9 14------ 7.2- 3.9---
2024-04-20 10:53 pmWNW 11 16------ 7.5- 4.1---
2024-04-20 10:43 pmWNW 11 17------ 7.9- 4.3---
2024-04-20 10:33 pmWNW 12 17------ 8.1- 4.5---
2024-04-20 10:23 pmWNW 9 14------ 8.4- 4.6---
2024-04-20 10:13 pmWNW 10 15------ 9.0- 5.2---
2024-04-20 10:03 pmWNW 12 16------ 9.1- 5.4---
2024-04-20 09:53 pm W 11 15------ 9.3- 5.4---
2024-04-20 09:43 pmWNW 12 17------ 9.9- 5.7---
2024-04-20 09:33 pmWNW 11 15------ 10.0- 5.9---
2024-04-20 09:23 pmWNW 13 17------ 10.4- 6.1---
2024-04-20 09:14 pmWNW 12 17------ 10.9- 6.8---
2024-04-20 09:03 pmWNW 12 17------ 11.1- 6.8---
2024-04-20 08:53 pmWNW 12 16------ 11.3- 7.2---
2024-04-20 08:44 pmWNW 13 16------ 11.7- 7.5---
2024-04-20 08:34 pm W 13 17------ 11.7- 7.5---
2024-04-20 08:14 pmWNW 12 16------ 12.0- 8.1---
2024-04-20 08:03 pmWNW 11 16------ 12.4- 8.2---
2024-04-20 07:44 pm W 11 15------ 12.6- 8.6---
2024-04-20 07:33 pm W 10 14------ 12.7- 9.1---
2024-04-20 07:23 pm W 11 16------ 12.7- 9.1---
2024-04-20 07:13 pm W 11 17------ 12.7- 9.1---
2024-04-20 07:03 pm W 11 14------ 12.7- 9.1---
2024-04-20 06:53 pm W 11 14------ 12.6- 8.8---
2024-04-20 06:43 pmWNW 11 15------ 12.7- 8.8---
2024-04-20 06:33 pmWNW 10 15------ 12.9- 9.0---
2024-04-20 06:24 pmWNW 11 15------ 12.7- 8.8---
2024-04-20 06:13 pmWNW 11 15------ 12.7- 9.0---
2024-04-20 06:03 pm W 10 14------ 12.4- 8.8---
2024-04-20 05:43 pm W 10 14------ 12.2- 8.2---
2024-04-20 05:33 pm W 10 14------ 12.2- 8.2---
2024-04-20 05:24 pm W 10 13------ 12.4- 8.4---
2024-04-20 05:14 pm W 10 14------ 12.2- 8.2---
2024-04-20 05:03 pm W 10 13------ 12.4- 8.2---
2024-04-20 04:54 pm W 9 12------ 12.4- 8.2---
2024-04-20 04:43 pm W 9 13------ 12.4- 8.1---
2024-04-20 04:33 pm W 9 12------ 12.6- 8.1---
2024-04-20 04:23 pm W 9 13------ 12.6- 8.1---
2024-04-20 04:13 pm W 9 13------ 12.6- 8.2---
2024-04-20 03:54 pm W 10 14------ 12.7- 8.8---
2024-04-20 03:43 pm W 10 14------ 13.1- 9.1---
2024-04-20 03:33 pm W 10 15------ 12.9- 9.1---
2024-04-20 03:23 pm W 10 16------ 12.9- 9.3---
2024-04-20 03:13 pm W 10 16------ 13.5- 9.9---
2024-04-20 03:03 pm W 11 15------ 13.3- 9.7---
2024-04-20 02:53 pm W 11 16------ 13.6- 10.0---
2024-04-20 02:43 pm W 10 14------ 13.8- 10.2---
2024-04-20 02:34 pm W 10 16------ 13.6- 10.0---
2024-04-20 02:24 pm W 11 16------ 13.8- 10.2---
2024-04-20 02:13 pm W 11 16------ 14.2- 10.6---
2024-04-20 02:03 pm W 11 16------ 14.5- 10.9---
2024-04-20 01:53 pm W 10 14------ 15.1- 11.3---
2024-04-20 01:43 pm W 10 15------ 15.3- 11.5---
2024-04-20 01:33 pm W 10 15------ 15.3- 11.5---
2024-04-20 01:23 pm W 10 17------ 15.3- 11.3---
2024-04-20 01:14 pm W 9 13------ 15.1- 11.1---
2024-04-20 01:03 pmWNW 10 14------ 14.9- 10.9---
2024-04-20 12:53 pm W 9 13------ 15.1- 11.1---
2024-04-20 12:43 pm W 9 15------ 14.9- 10.9---
2024-04-20 12:33 pm W 10 15------ 14.5- 10.6---
2024-04-20 12:24 pm W 10 17------ 14.5- 10.6---
2024-04-20 12:04 pm W 10 14------ 14.2- 10.4---
2024-04-20 11:53 am W 9 15------ 14.2- 10.6---
2024-04-20 11:44 am W 9 16------ 13.8- 10.2---
2024-04-20 11:33 am W 9 15------ 13.6- 10.2---
2024-04-20 11:24 am W 11 17------ 13.3- 9.9---
2024-04-20 11:14 am W 10 16------ 13.1- 9.7---
2024-04-20 11:03 am W 9 15------ 12.9- 9.5---
2024-04-20 10:53 am W 10 15------ 12.6- 9.1---
2024-04-20 10:43 am W 10 16------ 12.6- 9.1---
2024-04-20 10:33 am W 9 13------ 12.2- 8.8---
2024-04-20 10:23 am W 10 13------ 12.2- 8.8---
2024-04-20 10:13 am W 11 16------ 11.8- 8.4---
2024-04-20 10:04 am W 11 15------ 12.0- 8.6---
2024-04-20 09:53 am W 10 14------ 11.8- 8.4---
2024-04-20 09:43 am W 9 14------ 11.5- 8.2---
2024-04-20 09:33 am W 10 15------ 11.5- 8.4---
2024-04-20 09:13 am W 11 17------ 11.8- 8.4---
2024-04-20 09:04 am W 11 15------ 12.0- 8.6---
2024-04-20 08:44 am W 12 18------ 12.2- 9.1---
2024-04-20 08:34 am W 12 17------ 12.4- 9.3---
2024-04-20 08:24 am W 11 17------ 12.4- 9.0---
2024-04-20 08:14 am W 12 16------ 12.4- 9.0---
2024-04-20 08:08 am W 13 17------ 12.2- 8.8---
2024-04-20 08:04 am W 13 17------ 12.2- 8.8---
2024-04-20 07:44 amWSW 12 16------ 12.0- 9.0---
2024-04-20 07:33 amWSW 12 17------ 12.2- 9.1---
2024-04-20 07:23 am W 11 15------ 12.2- 9.1---
2024-04-20 07:14 amWSW 12 17------ 12.0- 9.0---
2024-04-20 07:03 am W 13 18------ 12.2- 9.1---
2024-04-20 06:53 amWSW 13 16------ 12.6- 9.5---
2024-04-20 06:43 am W 13 18------ 12.9- 9.7---
2024-04-20 06:33 amWSW 13 19------ 13.1- 9.7---
2024-04-20 06:24 amWSW 13 17------ 13.3- 9.9---
2024-04-20 06:13 amWSW 14 19------ 13.5- 9.9---
2024-04-20 06:03 amWSW 14 19------ 13.6- 10.0---
2024-04-20 05:53 am W 14 18------ 13.6- 10.0---
2024-04-20 05:43 amWSW 13 20------ 14.0- 10.4---
2024-04-20 05:33 am W 12 17------ 14.0- 10.4---
2024-04-20 05:23 amWSW 12 16------ 14.0- 10.4---
2024-04-20 05:14 amWSW 10 15------ 14.0- 10.4---
2024-04-20 05:03 amWSW 10 15------ 14.0- 10.6---
2024-04-20 04:53 amWSW 9 13------ 14.2- 10.9---
2024-04-20 04:44 amWSW 11 15------ 14.4- 11.1---
2024-04-20 04:33 am W 9 16------ 14.5- 11.3---
2024-04-20 04:24 am W 9 14------ 14.4- 11.1---
2024-04-20 04:13 am W 9 14------ 14.2- 10.9---
2024-04-20 04:03 am W 10 14------ 14.4- 11.1---
2024-04-20 03:54 am W 10 15------ 14.4- 11.3---
2024-04-20 03:43 am W 9 14------ 14.5- 11.7---
2024-04-20 03:33 am W 10 15------ 14.5- 11.7---
2024-04-20 03:23 am W 10 16------ 15.1- 12.2---
2024-04-20 03:13 amWSW 10 17------ 15.1- 12.2---
2024-04-20 03:03 amWSW 12 16------ 15.1- 12.0---
2024-04-20 02:54 amWSW 12 15------ 15.1- 11.8---
2024-04-20 02:43 amWSW 12 18------ 15.1- 11.8---
2024-04-20 02:33 am W 12 17------ 15.4- 12.2---
2024-04-20 02:24 am W 13 18------ 15.6- 12.2---
2024-04-20 02:14 amWSW 13 18------ 15.8- 12.2---
2024-04-20 02:03 am W 12 19------ 16.2- 12.4---
2024-04-20 01:43 am W 12 18------ 16.5- 12.6---
2024-04-20 01:33 amWSW 12 17------ 16.9- 12.9---
2024-04-20 01:23 amWSW 12 17------ 17.1- 12.9---
2024-04-20 01:13 am W 14 20------ 16.9- 12.6---
2024-04-20 01:03 amWSW 12 17------ 17.2- 12.9---
2024-04-20 12:53 amWSW 14 18------ 17.8- 13.5---